О сайте АЭРОКЛУБЫ И АЭРОДРОМЫ:

Добрый день Уважаемые посетители сайта!
Этот ресурс создан с целью предоставить любителям малой авиации максимум полезной информации и возможностей по обмену различными сведениями об аэродромах и интересных маршрутах. Для этого на сайте есть странички Аэродромы - информация из баз АОПА (в том виде как она предоставляется к свободному использованию) и Каталог аэродромов и аэроклубов , с различными вариантами поиска и сортировки, возможностью найти трансфер, арендовать авто или забронировать номер в гостинице on-line, а так же возможностями :
- для аэроклубов - добавить какую либо дополнительную информацию в страничку , посвященную аэроклубу
(чтобы добавить информацию необходимо зарегистрироваться, и подтвердить свою принадлежность к какому либо аэроклубу)
- для посетителей - поделиться каким либо интересным маршрутом, нарисовать его на карте, описать достопримечательности, загрузить фотографии и поставить в соответствие с каким либо клубом или аэродромом.
(чтобы добавить информацию необходимо зарегистрироваться)

Аэроклубы / Аэродромы в Москве

Карта аэродромов в Москве по коду ИКАО

Список аэродромов Москвы

Авиационная погода в Москва - Домодедово

Погода METAR: 
UUDD 290530Z 13003MPS 090V150 2200 -SN BKN022 M06/M08 Q1002 RESHSN R14R/590532 R14C/590533 TEMPO 0700 +SHSN BKN012CB
Время наблюдения
2022-01-29T05:30:00Z
Температура C
-6.0
Точка росы
-8.0
Направление ветра
130
Скорость ветра (узлы)
6
Метео видимость
1.37
Облачность
BKN
Нижняя граница облачности (футы)
2200
Явления погоды
-SN
Условия полета
IFR
Аэропорт подробнее: 
BKN – значительная (рассеянная, разорванная) облачность;
-SN – слабый снег;

Авиационная погода в Москва - Шереметьево

Погода METAR: 
UUEE 290530Z 08003MPS 5000 BR OVC043 M07/M08 Q1002 R88/550230 NOSIG
Время наблюдения
2022-01-29T05:30:00Z
Температура C
-7.0
Точка росы
-8.0
Направление ветра
80
Скорость ветра (узлы)
6
Метео видимость
3.11
Облачность
OVC
Нижняя граница облачности (футы)
4300
Явления погоды
BR
Условия полета
MVFR
Аэропорт подробнее: 
OVC – сплошная облачность;
BR – дымка (видимость от 1 до 9 км);

Авиационная погода в Москва - Внуково

Погода METAR: 
UUWW 290530Z 11002MPS 3100 -SN BKN046 M07/M08 Q1002 RESN R06/451037 NOSIG
Время наблюдения
2022-01-29T05:30:00Z
Температура C
-7.0
Точка росы
-8.0
Направление ветра
110
Скорость ветра (узлы)
4
Метео видимость
1.93
Облачность
BKN
Нижняя граница облачности (футы)
4600
Явления погоды
-SN
Условия полета
IFR
Аэропорт подробнее: 
BKN – значительная (рассеянная, разорванная) облачность;
-SN – слабый снег;

Аэроклубы и аэродромы по регионам Юга России